Time;durP1;ratioP1;P1;durP2;ratioP2;P2;SDS_P1;SDS_P2;PMS_P1;PMS_P2;Temp;Humidity;BMP_temperature;BMP_pressure;BME280_temperature;BME280_humidity;BME280_pressure;Samples;Min_cycle;Max_cycle;Signal;HPM_P1;HPM_P2
2022/02/10 00:04:55;;;;;;;18.20;9.90;;;4.80;99.90;;;;;;5031133;28;20280;-73
2022/02/10 00:17:13;;;;;;;26.03;11.07;;;4.80;99.90;;;;;;5052994;28;20205;-72
2022/02/10 00:23:28;;;;;;;21.70;10.43;;;4.80;99.90;;;;;;5055826;28;20225;-72
2022/02/10 00:35:37;;;;;;;23.93;10.77;;;4.70;99.90;;;;;;5049425;28;20262;-73
2022/02/10 00:38:29;;;;;;;23.87;9.67;;;4.70;99.90;;;;;;5049232;28;20698;-72
2022/02/10 00:41:16;;;;;;;24.30;11.33;;;4.70;99.90;;;;;;5047066;28;20193;-73
2022/02/10 00:44:04;;;;;;;24.47;10.40;;;4.70;99.90;;;;;;5058373;28;20224;-73
2022/02/10 00:46:52;;;;;;;20.43;10.67;;;4.70;99.90;;;;;;5071786;28;20209;-73
2022/02/10 00:49:40;;;;;;;21.27;10.57;;;4.70;99.90;;;;;;5074170;28;20664;-72
2022/02/10 00:52:29;;;;;;;22.90;10.90;;;4.70;99.90;;;;;;5067213;28;20202;-72
2022/02/10 00:55:23;;;;;;;21.87;11.23;;;4.70;99.90;;;;;;5070471;28;20208;-73
2022/02/10 00:58:13;;;;;;;23.23;10.90;;;4.70;99.90;;;;;;5074953;28;20215;-73
2022/02/10 01:10:22;;;;;;;23.00;10.87;;;4.70;99.90;;;;;;5069395;28;20196;-73
2022/02/10 01:10:36;;;;;;;24.00;11.53;;;4.70;99.90;;;;;;5070329;28;20350;-73
2022/02/10 01:13:43;;;;;;;23.70;11.33;;;4.70;99.90;;;;;;5068868;28;20236;-72
2022/02/10 01:31:49;;;;;;;25.97;11.03;;;4.60;99.90;;;;;;4952406;28;20209;-73
2022/02/10 01:34:42;;;;;;;22.77;11.60;;;4.70;99.90;;;;;;4952205;28;20208;-72
2022/02/10 01:37:29;;;;;;;19.63;9.90;;;4.60;99.90;;;;;;4950822;28;20204;-72
2022/02/10 01:40:23;;;;;;;14.53;9.03;;;4.60;99.90;;;;;;4948842;28;20244;-72
2022/02/10 02:04:44;;;;;;;21.10;9.97;;;4.60;99.90;;;;;;5010059;28;20199;-73
2022/02/10 02:07:32;;;;;;;19.27;9.53;;;4.60;99.90;;;;;;5007223;28;20265;-72
2022/02/10 02:10:20;;;;;;;19.67;9.17;;;4.60;99.90;;;;;;5062647;28;20282;-73
2022/02/10 02:13:07;;;;;;;15.03;9.40;;;4.60;99.90;;;;;;5064087;28;20204;-73
2022/02/10 02:15:56;;;;;;;18.23;9.17;;;4.70;99.90;;;;;;5077211;28;20220;-72
2022/02/10 02:18:44;;;;;;;18.53;8.77;;;4.70;99.90;;;;;;5072430;28;20196;-73
2022/02/10 02:21:34;;;;;;;17.20;9.33;;;4.70;99.90;;;;;;5070622;28;20204;-73
2022/02/10 02:24:23;;;;;;;18.97;9.17;;;4.70;99.90;;;;;;5063430;28;20323;-74
2022/02/10 02:27:16;;;;;;;16.37;9.20;;;4.60;99.90;;;;;;5060677;28;20208;-73
2022/02/10 02:30:12;;;;;;;14.13;8.50;;;4.70;99.90;;;;;;5075517;28;20199;-73
2022/02/10 03:04:35;;;;;;;12.93;7.27;;;4.70;99.90;;;;;;4945121;28;20584;-73
2022/02/10 03:07:30;;;;;;;14.17;7.47;;;4.70;99.90;;;;;;4942155;29;20249;-72
2022/02/10 03:13:28;;;;;;;15.33;7.30;;;4.70;99.90;;;;;;5021150;28;20208;-73
2022/02/10 03:19:30;;;;;;;12.93;7.70;;;4.70;99.90;;;;;;5060260;28;20275;-72
2022/02/10 03:22:34;;;;;;;11.80;7.40;;;4.70;99.90;;;;;;5052402;28;20683;-72
2022/02/10 04:03:19;;;;;;;11.37;7.57;;;4.80;99.90;;;;;;4949508;28;20208;-72
2022/02/10 04:06:24;;;;;;;12.77;7.47;;;4.80;99.90;;;;;;4948106;28;20586;-72
2022/02/10 04:15:30;;;;;;;12.30;7.13;;;4.80;99.90;;;;;;5015207;28;20198;-73
2022/02/10 04:18:48;;;;;;;12.17;7.73;;;4.80;99.90;;;;;;5074177;28;20246;-73
2022/02/10 04:21:44;;;;;;;11.73;7.20;;;4.80;99.90;;;;;;5067297;28;20699;-73
2022/02/10 04:25:01;;;;;;;11.03;7.30;;;4.80;99.90;;;;;;5068532;28;20675;-73
2022/02/10 04:28:08;;;;;;;11.47;7.10;;;4.80;99.90;;;;;;5045201;28;20201;-73
2022/02/10 04:44:20;;;;;;;11.97;7.07;;;4.90;99.90;;;;;;4999977;28;20736;-73
2022/02/10 04:59:53;;;;;;;10.13;6.23;;;4.90;99.90;;;;;;5000714;28;20692;-73
2022/02/10 05:03:21;;;;;;;11.67;6.80;;;4.90;99.90;;;;;;5000954;28;20226;-72
2022/02/10 05:13:01;;;;;;;9.67;6.50;;;4.90;99.90;;;;;;4995240;28;20204;-73
2022/02/10 05:19:04;;;;;;;11.77;7.10;;;4.80;99.90;;;;;;4989931;28;20294;-73
2022/02/10 05:31:47;;;;;;;15.40;7.23;;;4.90;99.90;;;;;;4985586;28;20199;-73
2022/02/10 05:34:39;;;;;;;12.80;7.70;;;5.00;99.90;;;;;;4990074;28;20226;-73
2022/02/10 05:37:31;;;;;;;13.90;7.07;;;5.00;99.90;;;;;;4977335;28;20220;-73
2022/02/10 05:40:33;;;;;;;13.93;7.30;;;5.00;99.90;;;;;;4985507;28;20592;-73
2022/02/10 05:43:30;;;;;;;15.47;7.33;;;5.00;99.90;;;;;;4988177;28;20234;-73
2022/02/10 05:46:37;;;;;;;13.73;6.97;;;5.10;99.90;;;;;;4984198;28;20247;-73
2022/02/10 05:50:03;;;;;;;11.83;7.53;;;5.10;99.90;;;;;;4988318;28;20214;-73
2022/02/10 05:56:09;;;;;;;12.83;7.30;;;5.10;99.90;;;;;;4972327;28;20618;-74
2022/02/10 05:59:21;;;;;;;10.30;6.30;;;5.00;99.90;;;;;;4984778;28;20623;-73
2022/02/10 06:02:48;;;;;;;10.73;6.93;;;5.10;99.90;;;;;;4986682;28;20206;-73
2022/02/10 06:51:56;;;;;;;12.93;7.20;;;5.20;99.90;;;;;;5006144;28;20211;-74
2022/02/10 06:54:56;;;;;;;15.03;6.93;;;5.10;99.90;;;;;;5010150;28;20245;-73
2022/02/10 07:04:22;;;;;;;12.83;7.83;;;5.20;99.90;;;;;;5001776;28;20674;-73
2022/02/10 07:54:38;;;;;;;18.60;10.40;;;5.60;1.00;;;;;;4921545;28;20239;-73
2022/02/10 07:57:36;;;;;;;21.30;10.47;;;5.60;99.90;;;;;;4989068;28;20716;-71
2022/02/10 08:50:26;;;;;;;26.03;13.10;;;6.60;1.00;;;;;;5000066;28;20232;-73
2022/02/10 08:54:14;;;;;;;26.00;12.30;;;6.60;1.00;;;;;;5008901;28;20303;-73
2022/02/10 08:56:49;;;;;;;25.13;13.17;;;6.70;99.90;;;;;;4997965;28;20635;-73
2022/02/10 09:00:28;;;;;;;38.67;17.63;;;6.70;1.00;;;;;;5007985;28;20208;-72
2022/02/10 09:03:25;;;;;;;37.77;18.97;;;6.70;99.90;;;;;;5006911;28;20260;-72
2022/02/10 09:06:22;;;;;;;55.33;24.07;;;6.80;1.00;;;;;;5005184;28;20199;-73
2022/02/10 09:09:50;;;;;;;54.97;25.87;;;6.80;99.90;;;;;;4992457;28;20228;-72
2022/02/10 09:19:03;;;;;;;26.27;11.97;;;6.90;1.00;;;;;;5058302;28;20199;-72
2022/02/10 09:56:20;;;;;;;27.90;14.17;;;7.30;42.30;;;;;;5068544;28;20278;-73
2022/02/10 09:59:26;;;;;;;27.93;13.23;;;7.40;49.90;;;;;;5073868;28;20679;-73
2022/02/10 10:02:18;;;;;;;35.13;13.77;;;7.50;48.90;;;;;;5076378;28;20349;-73
2022/02/10 10:05:15;;;;;;;30.17;12.63;;;7.60;58.90;;;;;;5073114;28;20334;-73
2022/02/10 10:14:36;;;;;;;28.93;11.87;;;7.70;67.90;;;;;;5005311;28;20225;-73
2022/02/10 10:17:43;;;;;;;26.67;11.80;;;7.70;60.70;;;;;;5005937;28;20243;-72
2022/02/10 10:20:43;;;;;;;22.63;11.57;;;7.70;72.70;;;;;;5006709;28;20215;-76
2022/02/10 10:23:46;;;;;;;22.30;11.20;;;7.70;85.90;;;;;;5005636;28;20493;-73
2022/02/10 10:52:00;;;;;;;16.10;6.27;;;8.10;93.90;;;;;;4932008;29;20962;-73
2022/02/10 10:54:55;;;;;;;13.87;6.43;;;8.20;93.70;;;;;;4936245;29;20207;-72
2022/02/10 10:57:47;;;;;;;13.27;5.03;;;8.20;94.20;;;;;;4930512;29;20205;-72
2022/02/10 11:00:56;;;;;;;13.80;6.33;;;8.20;93.30;;;;;;4919611;29;20616;-74
2022/02/10 11:04:40;;;;;;;18.87;7.90;;;8.20;93.80;;;;;;4928148;29;20199;-73
2022/02/10 11:22:09;;;;;;;20.47;8.87;;;8.20;93.60;;;;;;4927763;29;20210;-73
2022/02/10 11:38:42;;;;;;;14.43;6.40;;;8.60;91.90;;;;;;5068956;28;20235;-72
2022/02/10 11:45:18;;;;;;;12.63;5.50;;;8.70;91.60;;;;;;5064625;28;20701;-73
2022/02/10 12:31:22;;;;;;;12.57;5.80;;;9.20;90.40;;;;;;4967690;28;20287;-73
2022/02/10 12:37:01;;;;;;;12.73;5.67;;;9.50;89.60;;;;;;4950961;29;20196;-74
2022/02/10 13:24:48;;;;;;;8.87;4.43;;;14.70;63.30;;;;;;4836047;29;20227;-72
2022/02/10 13:50:31;;;;;;;9.43;3.63;;;12.60;68.60;;;;;;4981649;28;20217;-73
2022/02/10 14:14:35;;;;;;;6.00;2.97;;;13.90;64.20;;;;;;5025184;28;20209;-73
2022/02/10 14:17:31;;;;;;;7.00;3.60;;;14.20;64.30;;;;;;5023671;28;20190;-74
2022/02/10 14:20:38;;;;;;;7.20;3.23;;;13.40;65.60;;;;;;5026212;28;20237;-74
2022/02/10 14:26:45;;;;;;;7.83;3.30;;;12.10;69.40;;;;;;5023095;28;20198;-73
2022/02/10 14:29:34;;;;;;;8.13;3.50;;;11.40;71.50;;;;;;5026556;28;20207;-75
2022/02/10 14:32:26;;;;;;;8.47;4.10;;;10.90;73.60;;;;;;5023737;28;20200;-74
2022/02/10 14:35:19;;;;;;;6.20;3.27;;;10.50;75.00;;;;;;5020533;28;20310;-74
2022/02/10 14:38:19;;;;;;;6.47;3.40;;;10.30;76.60;;;;;;5024695;28;20331;-73
2022/02/10 14:41:36;;;;;;;10.00;4.37;;;9.90;79.20;;;;;;5025515;28;20663;-73
2022/02/10 15:20:39;;;;;;;7.97;4.20;;;9.00;88.50;;;;;;4947783;28;20263;-74
2022/02/10 15:21:54;;;;;;;6.90;4.00;;;8.90;89.00;;;;;;4946284;29;20205;-74
2022/02/10 15:53:03;;;;;;;20.53;9.23;;;8.40;92.20;;;;;;4991288;28;20202;-74
2022/02/10 16:11:26;;;;;;;14.87;7.27;;;8.00;94.00;;;;;;4871284;29;20656;-74
2022/02/10 16:17:17;;;;;;;14.77;7.57;;;8.00;94.60;;;;;;4950995;28;20744;-74
2022/02/10 16:20:08;;;;;;;17.57;8.10;;;7.80;95.00;;;;;;4952817;28;20209;-75
2022/02/10 16:22:59;;;;;;;17.13;8.30;;;7.80;95.40;;;;;;4948130;28;20212;-74
2022/02/10 16:25:50;;;;;;;24.83;9.57;;;7.70;95.50;;;;;;4949173;28;20196;-74
2022/02/10 16:28:40;;;;;;;23.13;9.87;;;7.60;96.60;;;;;;4949019;28;20210;-75
2022/02/10 16:31:29;;;;;;;20.93;9.13;;;7.40;97.40;;;;;;4946308;29;20239;-75
2022/02/10 16:34:17;;;;;;;27.97;10.27;;;7.40;98.00;;;;;;4945342;29;20307;-75
2022/02/10 16:37:06;;;;;;;26.87;10.03;;;7.30;99.00;;;;;;4990859;28;20199;-74
2022/02/10 16:39:54;;;;;;;23.67;9.83;;;7.20;99.90;;;;;;4988779;28;20206;-73
2022/02/10 16:42:42;;;;;;;26.43;10.10;;;7.20;99.90;;;;;;4988714;28;20746;-74
2022/02/10 16:45:29;;;;;;;24.03;10.13;;;7.20;99.90;;;;;;4977907;28;20199;-74
2022/02/10 16:48:18;;;;;;;21.90;10.60;;;7.30;99.50;;;;;;5034107;28;20301;-74
2022/02/10 16:51:08;;;;;;;28.50;11.33;;;7.30;99.80;;;;;;5074944;28;20208;-75
2022/02/10 16:54:04;;;;;;;24.27;10.57;;;7.20;99.30;;;;;;5064152;28;20299;-74
2022/02/10 16:57:02;;;;;;;29.23;12.27;;;7.10;99.90;;;;;;5066175;28;20216;-74
2022/02/10 17:00:03;;;;;;;30.00;12.93;;;6.90;99.90;;;;;;5068016;28;21029;-74
2022/02/10 17:03:11;;;;;;;32.60;12.10;;;6.80;99.90;;;;;;5069357;28;20679;-75
2022/02/10 17:14:06;;;;;;;28.93;12.47;;;6.70;99.90;;;;;;5051854;28;20212;-74
2022/02/10 17:27:54;;;;;;;27.27;11.27;;;6.00;99.90;;;;;;5056684;28;20211;-74
2022/02/10 17:34:36;;;;;;;25.73;11.47;;;6.00;99.90;;;;;;5062982;28;20201;-74
2022/02/10 17:41:24;;;;;;;27.33;12.33;;;6.10;99.90;;;;;;5067736;28;20745;-74
2022/02/10 17:46:53;;;;;;;33.93;14.57;;;6.00;99.90;;;;;;5077794;27;21309;-75
2022/02/10 17:52:58;;;;;;;35.67;14.60;;;5.80;99.90;;;;;;5063614;28;20218;-74
2022/02/10 17:55:45;;;;;;;67.57;27.83;;;5.80;99.90;;;;;;5067959;28;20195;-75
2022/02/10 17:58:33;;;;;;;51.07;20.27;;;5.70;99.90;;;;;;5066001;28;20204;-73
2022/02/10 18:01:21;;;;;;;42.93;16.23;;;5.60;99.90;;;;;;5071303;28;20237;-75
2022/02/10 18:04:10;;;;;;;45.47;18.83;;;5.60;99.90;;;;;;5069392;28;20191;-75
2022/02/10 18:06:58;;;;;;;51.57;22.43;;;5.50;99.90;;;;;;5071842;28;20207;-76
2022/02/10 18:10:19;;;;;;;47.57;20.63;;;5.40;99.90;;;;;;5074573;28;20219;-75
2022/02/10 18:13:26;;;;;;;57.80;23.47;;;5.40;99.90;;;;;;5059054;28;20200;-75
2022/02/10 18:16:18;;;;;;;46.83;20.47;;;5.30;99.90;;;;;;5059493;28;20193;-75
2022/02/10 18:19:10;;;;;;;54.83;22.77;;;5.20;99.90;;;;;;5064853;28;20213;-75
2022/02/10 18:25:28;;;;;;;47.47;21.17;;;5.10;99.90;;;;;;5002195;28;20222;-76
2022/02/10 18:28:29;;;;;;;49.17;20.60;;;5.20;99.90;;;;;;5003895;28;20207;-75
2022/02/10 19:09:10;;;;;;;45.73;19.50;;;6.10;99.90;;;;;;4799339;29;20323;-69
2022/02/10 19:12:01;;;;;;;49.77;20.37;;;6.10;99.90;;;;;;4815663;29;20237;-69
2022/02/10 19:14:54;;;;;;;46.83;19.73;;;6.10;99.90;;;;;;4819154;29;20762;-69
2022/02/10 19:17:42;;;;;;;41.53;18.47;;;6.10;99.90;;;;;;4861586;29;20573;-69
2022/02/10 19:20:29;;;;;;;46.70;19.30;;;6.10;99.90;;;;;;4887667;29;20291;-69
2022/02/10 19:23:17;;;;;;;45.83;18.93;;;6.10;99.90;;;;;;4888213;29;20212;-69
2022/02/10 19:26:06;;;;;;;40.20;18.47;;;6.20;99.90;;;;;;4890712;29;20241;-69
2022/02/10 19:28:53;;;;;;;43.07;18.77;;;6.10;99.90;;;;;;4889468;29;20206;-69
2022/02/10 19:31:41;;;;;;;46.07;18.97;;;6.10;99.90;;;;;;4893550;29;21562;-69
2022/02/10 19:34:33;;;;;;;45.77;18.40;;;6.10;99.90;;;;;;4937660;28;20228;-69
2022/02/10 19:37:21;;;;;;;45.50;18.73;;;6.20;99.90;;;;;;4988414;28;20203;-69
2022/02/10 19:40:10;;;;;;;42.83;18.40;;;6.20;99.90;;;;;;4985071;28;20207;-69
2022/02/10 19:42:59;;;;;;;45.60;17.97;;;6.20;99.90;;;;;;5022824;28;20201;-68
2022/02/10 19:45:53;;;;;;;43.17;18.43;;;6.20;99.90;;;;;;5040517;28;20605;-68
2022/02/10 19:48:41;;;;;;;44.17;18.87;;;6.20;99.90;;;;;;5059871;28;20235;-69
2022/02/10 19:51:28;;;;;;;50.03;20.23;;;6.30;99.90;;;;;;5064848;28;20260;-69
2022/02/10 19:54:23;;;;;;;46.40;20.40;;;6.40;99.90;;;;;;5062477;28;20208;-70
2022/02/10 19:57:11;;;;;;;47.23;20.67;;;6.40;99.90;;;;;;5058432;28;20678;-70
2022/02/10 20:00:00;;;;;;;45.63;19.57;;;6.40;99.90;;;;;;5068459;28;20202;-69
2022/02/10 20:02:48;;;;;;;38.53;17.80;;;6.40;99.90;;;;;;5062380;28;20581;-70
2022/02/10 20:05:36;;;;;;;35.73;17.00;;;6.50;99.90;;;;;;5066086;28;20222;-69
2022/02/10 20:08:24;;;;;;;32.60;15.17;;;6.50;99.90;;;;;;5064906;28;20202;-69
2022/02/10 20:11:12;;;;;;;33.60;13.57;;;6.60;99.90;;;;;;5071173;28;20221;-69
2022/02/10 20:13:59;;;;;;;28.27;13.20;;;6.70;99.90;;;;;;5068831;28;20199;-69
2022/02/10 20:16:49;;;;;;;26.13;12.07;;;6.70;99.90;;;;;;5069706;28;20202;-69
2022/02/10 20:19:36;;;;;;;24.20;11.63;;;6.70;99.90;;;;;;5073338;28;20238;-69
2022/02/10 20:22:24;;;;;;;30.33;12.37;;;6.80;99.90;;;;;;5065514;28;20217;-69
2022/02/10 20:25:12;;;;;;;27.20;11.97;;;6.80;99.90;;;;;;5069137;28;20246;-69
2022/02/10 20:27:59;;;;;;;26.77;11.63;;;6.80;99.90;;;;;;5071249;28;20261;-69
2022/02/10 20:30:47;;;;;;;27.30;10.73;;;7.00;99.90;;;;;;5066249;28;20228;-76
2022/02/10 20:33:36;;;;;;;23.97;11.37;;;7.00;99.90;;;;;;5064131;28;20339;-75
2022/02/10 20:36:24;;;;;;;24.17;10.27;;;7.00;99.90;;;;;;5062829;28;20206;-75
2022/02/10 20:39:16;;;;;;;24.57;10.37;;;7.10;99.90;;;;;;5067596;28;20210;-75
2022/02/10 20:42:08;;;;;;;19.63;10.20;;;7.10;99.90;;;;;;5071133;28;20280;-75
2022/02/10 20:44:56;;;;;;;18.93;8.90;;;7.10;99.90;;;;;;5068451;28;20600;-75
2022/02/10 20:47:44;;;;;;;24.00;8.87;;;7.10;99.90;;;;;;5061254;28;20228;-75
2022/02/10 20:50:33;;;;;;;19.37;8.80;;;7.20;99.60;;;;;;5054964;28;20222;-75
2022/02/10 20:53:20;;;;;;;20.77;8.93;;;7.20;99.20;;;;;;5055567;28;20197;-75
2022/02/10 20:56:10;;;;;;;17.00;8.27;;;7.30;98.60;;;;;;5068077;28;20204;-75
2022/02/10 20:59:06;;;;;;;18.50;8.73;;;7.30;98.40;;;;;;5061012;28;20199;-75
2022/02/10 21:01:58;;;;;;;21.40;8.87;;;7.30;97.70;;;;;;5057987;28;20195;-74
2022/02/10 21:04:52;;;;;;;19.43;7.97;;;7.40;97.70;;;;;;5064154;28;20211;-75
2022/02/10 21:07:47;;;;;;;18.37;7.90;;;7.40;97.70;;;;;;5067532;28;20561;-75
2022/02/10 21:10:36;;;;;;;19.77;8.03;;;7.50;96.80;;;;;;5062062;28;20224;-75
2022/02/10 21:13:25;;;;;;;16.93;7.90;;;7.50;97.20;;;;;;5056732;28;20214;-74
2022/02/10 21:16:12;;;;;;;18.93;8.37;;;7.40;97.50;;;;;;5057467;28;20851;-74
2022/02/10 21:19:00;;;;;;;20.37;8.60;;;7.50;97.20;;;;;;5058023;28;20682;-74
2022/02/10 21:21:48;;;;;;;20.57;8.60;;;7.50;97.10;;;;;;5059014;28;20202;-74
2022/02/10 21:24:41;;;;;;;21.27;9.17;;;7.50;96.80;;;;;;5063517;28;20204;-75
2022/02/10 21:27:32;;;;;;;21.83;8.03;;;7.60;96.80;;;;;;5054000;28;20256;-74
2022/02/10 21:30:21;;;;;;;21.97;8.97;;;7.60;96.40;;;;;;5060094;28;20204;-74
2022/02/10 21:33:15;;;;;;;20.87;8.67;;;7.60;96.40;;;;;;5053270;28;20218;-74
2022/02/10 21:39:23;;;;;;;24.20;9.00;;;7.60;96.50;;;;;;5053002;28;20196;-75
2022/02/10 21:55:21;;;;;;;21.60;8.30;;;7.50;96.80;;;;;;4977854;28;20342;-74
2022/02/10 22:11:03;;;;;;;22.37;9.00;;;7.50;97.00;;;;;;4968380;28;20680;-74
2022/02/10 22:17:10;;;;;;;19.10;7.40;;;7.60;96.70;;;;;;4908244;29;20220;-74
2022/02/10 22:20:05;;;;;;;23.80;9.07;;;7.60;96.40;;;;;;4909585;29;20629;-74
2022/02/10 22:23:03;;;;;;;19.27;8.27;;;7.50;96.60;;;;;;4907831;29;20208;-74
2022/02/10 22:25:52;;;;;;;22.33;8.80;;;7.50;96.90;;;;;;4905617;29;20302;-74
2022/02/10 22:28:48;;;;;;;22.77;7.97;;;7.40;97.30;;;;;;4942019;28;20214;-74
2022/02/10 22:31:48;;;;;;;16.53;7.27;;;7.40;97.40;;;;;;4976083;28;20637;-74
2022/02/10 22:34:37;;;;;;;20.30;8.17;;;7.50;97.10;;;;;;4979590;28;20251;-73
2022/02/10 22:37:25;;;;;;;18.03;8.17;;;7.40;97.10;;;;;;4981534;28;20703;-73
2022/02/10 22:40:36;;;;;;;20.37;8.30;;;7.50;97.00;;;;;;4976140;28;20275;-73
2022/02/10 22:43:21;;;;;;;17.53;7.73;;;7.50;96.60;;;;;;4982279;28;20245;-73
2022/02/10 22:46:08;;;;;;;18.77;8.43;;;7.40;96.70;;;;;;4981675;28;20249;-73
2022/02/10 22:48:58;;;;;;;14.77;7.23;;;7.40;96.90;;;;;;4979449;28;20257;-73
2022/02/10 22:51:45;;;;;;;23.37;8.30;;;7.40;97.10;;;;;;4982762;28;20661;-74
2022/02/10 22:54:33;;;;;;;22.60;8.80;;;7.30;97.20;;;;;;5028949;28;20215;-74
2022/02/10 22:57:20;;;;;;;21.40;8.60;;;7.30;97.70;;;;;;5038527;28;20211;-74
2022/02/10 23:00:09;;;;;;;23.20;9.43;;;7.30;97.70;;;;;;5038688;28;20215;-74
2022/02/10 23:02:57;;;;;;;15.20;7.87;;;7.20;98.20;;;;;;5042851;28;20228;-74
2022/02/10 23:05:46;;;;;;;23.43;8.67;;;7.20;98.60;;;;;;5042939;28;20249;-73
2022/02/10 23:08:34;;;;;;;18.30;8.10;;;7.20;98.70;;;;;;5044284;28;20294;-74
2022/02/10 23:11:27;;;;;;;19.90;8.70;;;7.20;98.80;;;;;;5042713;28;20229;-74
2022/02/10 23:14:15;;;;;;;20.30;9.20;;;7.20;99.40;;;;;;5042387;28;20321;-73
2022/02/10 23:17:03;;;;;;;20.53;8.90;;;7.20;99.70;;;;;;5042325;28;20201;-74
2022/02/10 23:19:50;;;;;;;19.70;9.27;;;7.20;99.80;;;;;;5041750;28;20215;-74
2022/02/10 23:22:39;;;;;;;20.77;9.07;;;7.20;99.90;;;;;;5038648;28;20207;-74
2022/02/10 23:25:27;;;;;;;20.07;9.60;;;7.20;99.90;;;;;;5042768;28;20222;-73
2022/02/10 23:28:16;;;;;;;20.77;10.37;;;7.20;99.90;;;;;;5042221;28;20220;-73
2022/02/10 23:31:04;;;;;;;21.13;9.93;;;7.20;99.90;;;;;;5038452;28;20199;-73
2022/02/10 23:33:54;;;;;;;21.13;10.30;;;7.20;99.90;;;;;;5040046;28;20207;-74
2022/02/10 23:36:47;;;;;;;21.33;11.07;;;7.20;99.90;;;;;;5044939;28;20199;-74
2022/02/10 23:39:39;;;;;;;22.93;11.60;;;7.10;99.90;;;;;;5036904;28;20211;-74
2022/02/10 23:42:30;;;;;;;20.97;10.40;;;7.00;99.90;;;;;;5043435;28;20204;-75
2022/02/10 23:45:23;;;;;;;20.63;9.87;;;7.00;99.90;;;;;;5043494;28;20296;-74
2022/02/10 23:48:10;;;;;;;23.83;11.73;;;6.90;99.90;;;;;;5042382;28;20201;-74
2022/02/10 23:50:58;;;;;;;21.57;10.60;;;6.80;99.90;;;;;;5043358;28;20691;-75
2022/02/10 23:53:45;;;;;;;23.93;12.17;;;6.60;99.90;;;;;;5039759;28;20579;-75
2022/02/10 23:56:41;;;;;;;26.27;12.00;;;6.50;99.90;;;;;;5044452;28;20281;-75
2022/02/10 23:59:52;;;;;;;21.27;11.80;;;6.40;99.90;;;;;;5042200;28;20207;-74
